Главная страница
METAR-TAF:

METAR-TAF

Аэропорты :

Brookhaven Airport

Шерли, Нью-Йорк, США

широта: 40-49-18N, долгота: 072-52-08W, высота над уровнем моря: 25 м

Текущие метеонаблюдения

Эта сводка был подготовлена 30 минут назад, в 10:56 UTC
Штиль
Температура 12°C
Влажность 82%
Давление 1014 hPa
Видимость: 12.9 км
ясное небо

METAR: KHWV 241056Z AUTO 00000KT 8SM CLR 12/09 A2995 RMK AO2 SLP143 T01170094

Время: 07:26 (11:26 UTC)


TAF: отсутствует

Метеонаблюдения и прогнозы для более 4000 аэропортов (сводки METAR и TAF).

Имеющиеся станции представлены на карте желтыми и красными точками.

Чтобы увидеть название станции, наведите на нее мышь.

Затем щелкните, чтобы увидеть метеонаблюдения и метеопрогнозы.

Управление картой: чтобы увеличить масштаб, щелкните зеленые кнопки с черным крестиком; чтобы уменьшить масштаб, щелкните зеленую кнопку с тире; для просмотра соседних карт щелкайте зеленые стрелки.


METAR-TAF: